createdAt,value
2024-02-09T00:00:30.773Z,6.37
2024-02-09T00:02:57.815Z,6.27
2024-02-09T00:05:25.885Z,6.80
2024-02-09T00:07:52.713Z,6.33
2024-02-09T00:10:20.513Z,6.40
2024-02-09T00:12:51.629Z,7.27
2024-02-09T00:15:21.852Z,5.57
2024-02-09T00:17:49.284Z,5.77
2024-02-09T00:20:16.471Z,6.23
2024-02-09T00:22:43.241Z,6.57
2024-02-09T00:25:11.574Z,6.33
2024-02-09T00:27:39.421Z,6.57
2024-02-09T00:30:07.626Z,6.53
2024-02-09T00:32:36.246Z,6.10
2024-02-09T00:35:04.317Z,6.10
2024-02-09T00:37:31.103Z,5.27
2024-02-09T00:39:57.753Z,6.10
2024-02-09T00:42:24.706Z,5.47
2024-02-09T00:44:51.997Z,5.80
2024-02-09T00:47:18.758Z,6.33
2024-02-09T00:49:46.931Z,5.77
2024-02-09T00:52:16.217Z,5.83
2024-02-09T00:54:43.265Z,6.50
2024-02-09T00:57:09.876Z,6.63
2024-02-09T00:59:40.378Z,6.23
2024-02-09T01:02:10.221Z,5.90
2024-02-09T01:04:37.670Z,6.70
2024-02-09T01:07:05.175Z,7.37
2024-02-09T01:09:34.540Z,6.60
2024-02-09T01:12:06.110Z,5.80
2024-02-09T01:14:51.737Z,5.33
2024-02-09T01:17:36.971Z,6.47
2024-02-09T01:20:22.452Z,6.13
2024-02-09T01:23:07.272Z,6.87
2024-02-09T01:25:52.107Z,6.43
2024-02-09T01:28:36.838Z,8.83
2024-02-09T01:31:21.702Z,7.70
2024-02-09T01:34:07.095Z,6.40
2024-02-09T01:36:52.285Z,5.30
2024-02-09T01:39:37.061Z,5.40
2024-02-09T01:42:22.273Z,5.20
2024-02-09T01:45:07.386Z,5.37
2024-02-09T01:47:52.929Z,5.67
2024-02-09T01:50:37.818Z,5.90
2024-02-09T01:53:23.061Z,5.93
2024-02-09T01:56:08.248Z,7.33
2024-02-09T01:58:53.465Z,7.43
2024-02-09T02:01:38.892Z,7.50
2024-02-09T02:04:24.074Z,6.77
2024-02-09T02:07:09.330Z,6.63
2024-02-09T02:09:54.254Z,6.10
2024-02-09T02:12:41.083Z,5.50
2024-02-09T02:15:26.533Z,6.27
2024-02-09T02:18:11.462Z,5.30
2024-02-09T02:20:56.179Z,6.07
2024-02-09T02:23:49.189Z,5.30
2024-02-09T02:26:34.092Z,5.63
2024-02-09T02:29:18.924Z,5.00
2024-02-09T02:32:03.793Z,4.87
2024-02-09T02:34:48.698Z,6.53
2024-02-09T02:37:33.780Z,6.60
2024-02-09T02:40:19.188Z,5.67
2024-02-09T02:42:45.595Z,5.13
2024-02-09T02:45:14.896Z,5.40
2024-02-09T02:47:41.864Z,4.93
2024-02-09T02:50:27.721Z,6.23
2024-02-09T02:53:12.566Z,5.87
2024-02-09T02:55:57.425Z,5.10
2024-02-09T02:58:42.250Z,6.90
2024-02-09T03:01:29.057Z,6.50
2024-02-09T03:04:13.760Z,6.30
2024-02-09T03:06:54.730Z,5.47
2024-02-09T03:09:26.538Z,5.80
2024-02-09T03:11:53.035Z,4.73
2024-02-09T03:14:19.485Z,6.37
2024-02-09T03:16:46.693Z,5.83
2024-02-09T03:19:16.468Z,6.67
2024-02-09T03:21:43.429Z,5.73
2024-02-09T03:24:09.958Z,5.40
2024-02-09T03:26:36.357Z,5.77
2024-02-09T03:29:02.785Z,5.17
2024-02-09T03:31:31.655Z,4.83
2024-02-09T03:33:58.544Z,6.23
2024-02-09T03:36:25.103Z,4.83
2024-02-09T03:38:51.493Z,6.00
2024-02-09T03:41:17.901Z,6.27
2024-02-09T03:43:44.348Z,6.20
2024-02-09T03:46:11.755Z,5.27
2024-02-09T03:48:38.203Z,5.23
2024-02-09T03:51:05.326Z,6.67
2024-02-09T03:53:34.984Z,5.10
2024-02-09T03:56:01.738Z,5.67
2024-02-09T03:58:28.389Z,5.60
2024-02-09T04:00:54.871Z,5.77
2024-02-09T04:03:21.361Z,4.83
2024-02-09T04:05:48.022Z,5.10
2024-02-09T04:08:14.785Z,5.13
2024-02-09T04:10:44.092Z,4.63
2024-02-09T04:13:14.434Z,5.77
2024-02-09T04:15:41.196Z,5.17
2024-02-09T04:18:09.088Z,5.50
2024-02-09T04:20:35.752Z,5.47
2024-02-09T04:23:02.263Z,4.70
2024-02-09T04:25:28.705Z,5.50
2024-02-09T04:27:55.737Z,4.37
2024-02-09T04:30:22.766Z,4.93
2024-02-09T04:32:49.217Z,5.10
2024-02-09T04:35:16.896Z,5.23
2024-02-09T04:37:43.628Z,4.23
2024-02-09T04:40:10.465Z,4.70
2024-02-09T04:42:36.930Z,4.60
2024-02-09T04:45:03.662Z,4.33
2024-02-09T04:47:30.255Z,4.73
2024-02-09T04:49:56.859Z,4.67
2024-02-09T04:52:26.742Z,4.47
2024-02-09T04:54:53.174Z,4.33
2024-02-09T04:57:22.346Z,3.87
2024-02-09T04:59:48.793Z,3.67
2024-02-09T05:02:15.403Z,3.20
2024-02-09T05:04:42.050Z,3.70
2024-02-09T05:07:08.541Z,3.97
2024-02-09T05:09:35.017Z,3.50
2024-02-09T05:12:01.500Z,3.53
2024-02-09T05:14:28.112Z,3.53
2024-02-09T05:16:54.967Z,3.80
2024-02-09T05:19:21.562Z,3.67
2024-02-09T05:21:48.067Z,4.20
2024-02-09T05:24:14.676Z,3.47
2024-02-09T05:26:41.082Z,3.70
2024-02-09T05:29:07.485Z,2.53
2024-02-09T05:31:34.007Z,2.97
2024-02-09T05:34:00.752Z,2.87
2024-02-09T05:36:29.557Z,2.63
2024-02-09T05:38:59.859Z,3.10
2024-02-09T05:41:29.002Z,3.67
2024-02-09T05:43:57.788Z,4.37
2024-02-09T05:46:26.405Z,2.93
2024-02-09T05:48:53.832Z,3.03
2024-02-09T05:51:21.065Z,3.17
2024-02-09T05:53:50.238Z,2.87
2024-02-09T05:56:21.446Z,2.90
2024-02-09T05:58:54.281Z,2.13
2024-02-09T06:01:23.752Z,2.73
2024-02-09T06:03:51.324Z,3.30
2024-02-09T06:06:22.208Z,2.93
2024-02-09T06:08:49.818Z,2.30
2024-02-09T06:11:17.093Z,2.20
2024-02-09T06:13:46.340Z,2.10
2024-02-09T06:16:13.263Z,2.53
2024-02-09T06:18:39.847Z,2.73
2024-02-09T06:21:06.807Z,3.17
2024-02-09T06:23:35.072Z,2.50
2024-02-09T06:26:01.459Z,3.30
2024-02-09T06:28:27.899Z,2.70
2024-02-09T06:30:54.884Z,2.90
2024-02-09T06:33:21.392Z,3.33
2024-02-09T06:35:49.029Z,3.67
2024-02-09T06:38:18.667Z,3.90
2024-02-09T06:40:47.335Z,3.20
2024-02-09T06:43:20.180Z,3.43
2024-02-09T06:45:47.190Z,3.30
2024-02-09T06:48:14.752Z,3.13
2024-02-09T06:50:41.825Z,2.60
2024-02-09T06:53:08.226Z,3.17
2024-02-09T06:55:35.918Z,3.13
2024-02-09T06:58:02.654Z,2.57
2024-02-09T07:00:29.199Z,2.83
2024-02-09T07:02:56.411Z,3.20
2024-02-09T07:05:23.461Z,2.77
2024-02-09T07:07:51.173Z,2.73
2024-02-09T07:10:19.239Z,3.50
2024-02-09T07:12:45.953Z,3.67
2024-02-09T07:15:15.717Z,4.00
2024-02-09T07:17:44.553Z,2.47
2024-02-09T07:20:13.217Z,3.00
2024-02-09T07:22:39.947Z,2.77
2024-02-09T07:25:06.635Z,2.60
2024-02-09T07:27:33.095Z,3.13
2024-02-09T07:30:00.408Z,3.80
2024-02-09T07:32:26.959Z,3.07
2024-02-09T07:34:56.434Z,2.47
2024-02-09T07:37:22.985Z,2.30
2024-02-09T07:39:49.397Z,3.03
2024-02-09T07:42:15.842Z,2.53
2024-02-09T07:44:42.219Z,2.57
2024-02-09T07:47:08.659Z,3.53
2024-02-09T07:49:35.333Z,2.93
2024-02-09T07:52:02.762Z,2.40
2024-02-09T07:54:32.550Z,2.73
2024-02-09T07:57:00.003Z,2.30
2024-02-09T07:59:26.512Z,2.67
2024-02-09T08:01:53.729Z,2.10
2024-02-09T08:04:21.257Z,2.23
2024-02-09T08:06:51.436Z,2.57
2024-02-09T08:09:17.925Z,2.90
2024-02-09T08:11:46.440Z,3.60
2024-02-09T08:14:12.864Z,2.63
2024-02-09T08:16:40.243Z,3.13
2024-02-09T08:19:10.908Z,3.70
2024-02-09T08:21:40.157Z,2.93
2024-02-09T08:24:11.812Z,3.37
2024-02-09T08:26:45.579Z,2.97
2024-02-09T08:29:19.991Z,3.27
2024-02-09T08:31:46.712Z,4.17
2024-02-09T08:34:13.812Z,3.57
2024-02-09T08:36:40.505Z,3.83
2024-02-09T08:39:07.008Z,4.03
2024-02-09T08:41:34.555Z,3.13
2024-02-09T08:44:01.199Z,3.83
2024-02-09T08:46:28.177Z,4.37
2024-02-09T08:48:54.857Z,4.67
2024-02-09T08:51:22.168Z,3.90
2024-02-09T08:53:49.172Z,4.20
2024-02-09T08:56:15.764Z,4.00
2024-02-09T08:58:42.993Z,4.50
2024-02-09T09:01:09.787Z,4.60
2024-02-09T09:03:36.540Z,3.30
2024-02-09T09:06:04.381Z,4.13
2024-02-09T09:08:31.676Z,3.73
2024-02-09T09:10:58.199Z,4.33
2024-02-09T09:13:25.671Z,4.67
2024-02-09T09:15:52.162Z,3.77
2024-02-09T09:18:18.623Z,3.20
2024-02-09T09:20:45.985Z,3.30
2024-02-09T09:23:12.433Z,4.10
2024-02-09T09:25:38.878Z,3.73
2024-02-09T09:28:05.456Z,3.40
2024-02-09T09:30:32.069Z,3.07
2024-02-09T09:32:58.723Z,3.23
2024-02-09T09:35:25.534Z,3.60
2024-02-09T09:37:52.237Z,3.00
2024-02-09T09:40:20.297Z,2.93
2024-02-09T09:42:46.853Z,3.30
2024-02-09T09:45:13.304Z,3.67
2024-02-09T09:47:44.230Z,3.40
2024-02-09T09:50:12.703Z,3.70
2024-02-09T09:52:49.480Z,2.97
2024-02-09T09:55:20.509Z,2.60
2024-02-09T09:57:49.377Z,3.33
2024-02-09T10:00:17.040Z,3.23
2024-02-09T10:02:43.472Z,3.57
2024-02-09T10:05:11.309Z,3.27
2024-02-09T10:07:41.548Z,3.10
2024-02-09T10:10:11.746Z,3.07
2024-02-09T10:12:38.944Z,3.20
2024-02-09T10:15:06.271Z,3.30
2024-02-09T10:17:32.892Z,3.10
2024-02-09T10:20:01.177Z,2.70
2024-02-09T10:22:27.912Z,3.80
2024-02-09T10:24:55.784Z,3.47
2024-02-09T10:27:22.396Z,3.03
2024-02-09T10:29:48.853Z,3.47
2024-02-09T10:32:15.276Z,3.00
2024-02-09T10:34:42.897Z,3.27
2024-02-09T10:37:14.241Z,2.70
2024-02-09T10:39:48.416Z,2.53
2024-02-09T10:42:15.952Z,2.50
2024-02-09T10:44:42.917Z,2.63
2024-02-09T10:47:10.543Z,3.60
2024-02-09T10:49:41.096Z,3.47
2024-02-09T10:52:10.451Z,3.10
2024-02-09T10:54:48.951Z,2.73
2024-02-09T10:57:15.508Z,2.63
2024-02-09T10:59:43.345Z,3.57
2024-02-09T11:02:10.801Z,3.87
2024-02-09T11:04:37.725Z,2.77
2024-02-09T11:07:05.916Z,2.87
2024-02-09T11:09:32.762Z,3.20
2024-02-09T11:12:01.370Z,2.60
2024-02-09T11:14:33.937Z,3.10
2024-02-09T11:17:07.941Z,2.77
2024-02-09T11:19:39.314Z,2.40
2024-02-09T11:22:06.243Z,3.07
2024-02-09T11:24:33.433Z,2.90
2024-02-09T11:27:00.404Z,3.00
2024-02-09T11:29:27.124Z,2.20
2024-02-09T11:31:58.090Z,2.87
2024-02-09T11:34:27.781Z,2.40
2024-02-09T11:36:55.548Z,2.67
2024-02-09T11:39:24.863Z,3.23
2024-02-09T11:41:51.679Z,3.50
2024-02-09T11:44:24.755Z,2.57
2024-02-09T11:46:54.773Z,2.57
2024-02-09T11:49:22.463Z,2.17
2024-02-09T11:51:52.160Z,2.93
2024-02-09T11:54:22.325Z,2.20
2024-02-09T11:56:50.990Z,2.80
2024-02-09T11:59:18.624Z,3.00
2024-02-09T12:01:45.521Z,2.57
2024-02-09T12:04:12.794Z,3.20
2024-02-09T12:06:40.351Z,3.10
2024-02-09T12:09:12.926Z,3.07
2024-02-09T12:11:41.789Z,3.30
2024-02-09T12:14:08.169Z,3.27
2024-02-09T12:16:34.822Z,3.17
2024-02-09T12:19:01.673Z,3.47
2024-02-09T12:21:29.609Z,3.03
2024-02-09T12:23:56.450Z,4.13
2024-02-09T12:26:25.572Z,3.33
2024-02-09T12:28:53.513Z,2.63
2024-02-09T12:31:20.359Z,3.00
2024-02-09T12:33:49.506Z,3.63
2024-02-09T12:36:21.393Z,4.43
2024-02-09T12:38:55.680Z,3.37
2024-02-09T12:41:22.599Z,3.80
2024-02-09T12:44:03.516Z,4.73
2024-02-09T12:46:30.997Z,3.03
2024-02-09T12:48:57.765Z,3.50
2024-02-09T12:51:25.024Z,3.27
2024-02-09T12:53:51.589Z,4.30
2024-02-09T12:56:18.466Z,5.33
2024-02-09T12:58:45.730Z,3.80
2024-02-09T13:01:12.683Z,3.67
2024-02-09T13:03:41.442Z,4.90
2024-02-09T13:06:08.712Z,4.90
2024-02-09T13:08:37.869Z,5.47
2024-02-09T13:11:07.726Z,4.57
2024-02-09T13:13:36.481Z,4.40
2024-02-09T13:16:03.792Z,6.23
2024-02-09T13:18:32.258Z,4.07
2024-02-09T13:20:59.553Z,3.87
2024-02-09T13:23:28.125Z,6.17
2024-02-09T13:25:54.672Z,4.30
2024-02-09T13:28:21.637Z,6.60
2024-02-09T13:30:48.067Z,3.40
2024-02-09T13:33:14.528Z,2.97
2024-02-09T13:35:44.358Z,3.10
2024-02-09T13:38:10.753Z,2.80
2024-02-09T13:40:37.278Z,2.50
2024-02-09T13:43:03.973Z,3.27
2024-02-09T13:45:30.424Z,3.10
2024-02-09T13:47:57.742Z,3.20
2024-02-09T13:50:27.304Z,2.50
2024-02-09T13:52:55.507Z,3.07
2024-02-09T13:55:23.828Z,2.40
2024-02-09T13:57:55.741Z,2.97
2024-02-09T14:00:25.148Z,3.10
2024-02-09T14:02:51.619Z,2.87
2024-02-09T14:05:18.574Z,3.70
2024-02-09T14:07:47.597Z,3.03
2024-02-09T14:10:14.620Z,2.87
2024-02-09T14:12:41.251Z,2.30
2024-02-09T14:15:09.673Z,2.67
2024-02-09T14:17:36.311Z,3.30
2024-02-09T14:20:03.974Z,2.73
2024-02-09T14:22:30.752Z,3.17
2024-02-09T14:25:00.060Z,3.33
2024-02-09T14:27:27.303Z,3.70
2024-02-09T14:29:54.037Z,3.53
2024-02-09T14:32:21.466Z,3.53
2024-02-09T14:34:48.560Z,4.17
2024-02-09T14:37:15.105Z,4.23
2024-02-09T14:39:46.001Z,3.87
2024-02-09T14:42:12.931Z,3.63
2024-02-09T14:44:49.989Z,5.87
2024-02-09T14:47:17.577Z,4.40
2024-02-09T14:49:51.195Z,5.20
2024-02-09T14:52:19.492Z,4.07
2024-02-09T14:54:46.521Z,3.40
2024-02-09T14:57:14.417Z,4.07
2024-02-09T14:59:40.992Z,3.60
2024-02-09T15:02:08.202Z,4.53
2024-02-09T15:04:40.761Z,3.23
2024-02-09T15:07:08.287Z,3.40
2024-02-09T15:09:35.333Z,3.33
2024-02-09T15:12:03.363Z,3.80
2024-02-09T15:14:33.135Z,3.17
2024-02-09T15:16:59.627Z,3.60
2024-02-09T15:19:26.273Z,3.37
2024-02-09T15:21:54.597Z,4.40
2024-02-09T15:24:22.477Z,4.00
2024-02-09T15:26:48.875Z,3.73
2024-02-09T15:29:15.281Z,4.27
2024-02-09T15:31:41.862Z,4.40
2024-02-09T15:34:10.831Z,5.27
2024-02-09T15:36:39.735Z,4.03
2024-02-09T15:39:06.533Z,4.00
2024-02-09T15:41:33.571Z,4.30
2024-02-09T15:44:00.001Z,4.53
2024-02-09T15:46:27.068Z,4.27
2024-02-09T15:48:54.102Z,4.40
2024-02-09T15:51:23.957Z,4.37
2024-02-09T15:53:55.149Z,4.50
2024-02-09T15:56:26.315Z,4.67
2024-02-09T15:58:53.408Z,5.30
2024-02-09T16:01:20.148Z,4.67
2024-02-09T16:03:50.578Z,4.73
2024-02-09T16:06:17.046Z,5.67
2024-02-09T16:08:46.653Z,5.03
2024-02-09T16:11:13.158Z,5.03
2024-02-09T16:13:40.842Z,5.47
2024-02-09T16:16:08.763Z,4.97
2024-02-09T16:18:36.554Z,4.97
2024-02-09T16:21:03.248Z,5.10
2024-02-09T16:23:30.729Z,4.70
2024-02-09T16:26:04.776Z,4.50
2024-02-09T16:28:33.995Z,4.57
2024-02-09T16:31:01.377Z,4.43
2024-02-09T16:33:28.525Z,4.70
2024-02-09T16:35:55.355Z,4.53
2024-02-09T16:38:21.807Z,4.10
2024-02-09T16:40:48.825Z,3.00
2024-02-09T16:43:21.069Z,3.13
2024-02-09T16:45:47.765Z,2.80
2024-02-09T16:48:16.713Z,3.23
2024-02-09T16:50:43.788Z,3.70
2024-02-09T16:53:17.580Z,2.47
2024-02-09T16:55:44.314Z,3.17
2024-02-09T16:58:10.879Z,3.50
2024-02-09T17:00:37.395Z,3.47
2024-02-09T17:03:03.909Z,4.17
2024-02-09T17:05:30.598Z,3.97
2024-02-09T17:07:58.238Z,3.87
2024-02-09T17:10:24.656Z,3.43
2024-02-09T17:12:51.731Z,3.17
2024-02-09T17:15:18.265Z,3.97
2024-02-09T17:17:44.738Z,3.97
2024-02-09T17:20:11.654Z,3.67
2024-02-09T17:22:38.106Z,4.23
2024-02-09T17:25:04.881Z,7.20
2024-02-09T17:27:31.249Z,6.23
2024-02-09T17:29:57.728Z,6.53
2024-02-09T17:32:24.183Z,7.10
2024-02-09T17:34:51.918Z,6.33
2024-02-09T17:37:19.316Z,4.77
2024-02-09T17:39:45.763Z,6.13
2024-02-09T17:42:13.655Z,5.07
2024-02-09T17:44:40.120Z,7.23
2024-02-09T17:47:06.576Z,7.77
2024-02-09T17:49:34.344Z,8.97
2024-02-09T17:52:02.113Z,5.97
2024-02-09T17:54:28.544Z,8.33
2024-02-09T17:56:54.987Z,10.97
2024-02-09T17:59:21.427Z,10.20
2024-02-09T18:01:47.981Z,7.97
2024-02-09T18:04:14.851Z,7.30
2024-02-09T18:06:41.473Z,6.70
2024-02-09T18:09:08.201Z,7.00
2024-02-09T18:11:35.729Z,6.30
2024-02-09T18:14:02.158Z,6.07
2024-02-09T18:16:28.658Z,5.70
2024-02-09T18:18:55.107Z,7.67
2024-02-09T18:21:22.717Z,6.17
2024-02-09T18:23:49.384Z,5.57
2024-02-09T18:26:16.824Z,6.13
2024-02-09T18:28:45.028Z,6.30
2024-02-09T18:31:15.859Z,7.17
2024-02-09T18:33:43.325Z,7.40
2024-02-09T18:36:10.106Z,6.27
2024-02-09T18:38:37.695Z,7.33
2024-02-09T18:41:04.668Z,7.20
2024-02-09T18:43:33.996Z,9.10
2024-02-09T18:46:00.816Z,7.90
2024-02-09T18:48:30.337Z,9.40
2024-02-09T18:50:56.854Z,8.73
2024-02-09T18:53:23.312Z,9.67
2024-02-09T18:55:49.833Z,9.07
2024-02-09T18:58:16.477Z,8.50
2024-02-09T19:00:43.309Z,8.63
2024-02-09T19:03:09.853Z,6.63
2024-02-09T19:05:36.372Z,5.30
2024-02-09T19:08:04.173Z,5.57
2024-02-09T19:10:33.677Z,5.10
2024-02-09T19:13:02.088Z,5.50
2024-02-09T19:15:28.779Z,5.57
2024-02-09T19:17:55.215Z,7.10
2024-02-09T19:20:21.633Z,7.20
2024-02-09T19:22:49.077Z,6.70
2024-02-09T19:25:19.646Z,6.17
2024-02-09T19:27:47.343Z,5.53
2024-02-09T19:30:17.648Z,6.60
2024-02-09T19:32:45.788Z,6.03
2024-02-09T19:35:13.763Z,5.57
2024-02-09T19:37:40.534Z,6.00
2024-02-09T19:40:07.953Z,5.60
2024-02-09T19:42:34.968Z,6.33
2024-02-09T19:45:04.931Z,6.33
2024-02-09T19:47:35.070Z,5.60
2024-02-09T19:50:01.559Z,6.03
2024-02-09T19:52:29.077Z,5.63
2024-02-09T19:54:57.153Z,6.00
2024-02-09T19:57:23.578Z,6.10
2024-02-09T19:59:50.337Z,7.07
2024-02-09T20:02:19.644Z,8.43
2024-02-09T20:04:51.205Z,6.47
2024-02-09T20:07:18.225Z,7.17
2024-02-09T20:09:44.634Z,6.47
2024-02-09T20:12:11.125Z,7.20
2024-02-09T20:14:39.576Z,6.27
2024-02-09T20:17:06.696Z,9.17
2024-02-09T20:19:33.225Z,6.60
2024-02-09T20:22:03.502Z,6.60
2024-02-09T20:24:31.240Z,6.77
2024-02-09T20:27:03.130Z,6.23
2024-02-09T20:29:29.782Z,5.33
2024-02-09T20:31:56.461Z,6.57
2024-02-09T20:34:22.962Z,6.83
2024-02-09T20:36:49.923Z,7.30
2024-02-09T20:39:16.359Z,6.97
2024-02-09T20:41:42.763Z,6.77
2024-02-09T20:44:10.019Z,7.10
2024-02-09T20:46:36.574Z,6.20
2024-02-09T20:49:06.053Z,6.23
2024-02-09T20:51:33.065Z,6.93
2024-02-09T20:54:02.813Z,6.50
2024-02-09T20:56:29.737Z,6.23
2024-02-09T20:58:56.445Z,6.07
2024-02-09T21:01:23.652Z,6.50
2024-02-09T21:03:51.405Z,6.70
2024-02-09T21:06:19.743Z,5.93
2024-02-09T21:08:46.412Z,7.73
2024-02-09T21:11:12.835Z,8.40
2024-02-09T21:13:39.283Z,10.97
2024-02-09T21:16:06.362Z,16.13
2024-02-09T21:18:32.931Z,12.97
2024-02-09T21:20:59.846Z,10.63
2024-02-09T21:23:30.365Z,9.77
2024-02-09T21:25:58.701Z,7.70
2024-02-09T21:28:26.893Z,6.97
2024-02-09T21:30:53.922Z,6.47
2024-02-09T21:33:20.850Z,7.17
2024-02-09T21:35:48.505Z,7.50
2024-02-09T21:38:17.722Z,5.97
2024-02-09T21:40:44.894Z,6.43
2024-02-09T21:43:15.462Z,6.40
2024-02-09T21:45:45.357Z,6.13
2024-02-09T21:48:12.089Z,7.33
2024-02-09T21:50:39.057Z,6.20
2024-02-09T21:53:05.561Z,7.23
2024-02-09T21:55:32.186Z,7.30
2024-02-09T21:57:58.638Z,7.27
2024-02-09T22:00:25.885Z,8.13
2024-02-09T22:02:53.974Z,8.40
2024-02-09T22:05:20.923Z,8.07
2024-02-09T22:07:47.880Z,8.03
2024-02-09T22:10:14.908Z,8.10
2024-02-09T22:12:43.820Z,7.30
2024-02-09T22:15:11.412Z,7.80
2024-02-09T22:17:38.432Z,8.00
2024-02-09T22:20:06.336Z,7.77
2024-02-09T22:22:33.670Z,7.83
2024-02-09T22:25:02.177Z,8.37
2024-02-09T22:27:28.559Z,7.90
2024-02-09T22:29:54.930Z,7.87
2024-02-09T22:32:24.119Z,8.57
2024-02-09T22:34:50.697Z,7.30
2024-02-09T22:37:17.897Z,7.27
2024-02-09T22:39:46.143Z,7.63
2024-02-09T22:42:13.446Z,7.07
2024-02-09T22:44:42.227Z,7.93
2024-02-09T22:47:09.717Z,7.60
2024-02-09T22:49:36.868Z,9.17
2024-02-09T22:52:03.994Z,7.67
2024-02-09T22:54:30.485Z,7.40
2024-02-09T22:56:56.890Z,6.87
2024-02-09T22:59:23.403Z,7.83
2024-02-09T23:01:50.993Z,6.37
2024-02-09T23:04:22.279Z,8.13
2024-02-09T23:06:49.856Z,8.23
2024-02-09T23:09:20.036Z,7.13
2024-02-09T23:11:46.737Z,7.53
2024-02-09T23:14:16.707Z,7.50
2024-02-09T23:16:45.855Z,7.63
2024-02-09T23:19:12.412Z,7.10
2024-02-09T23:21:40.716Z,8.17
2024-02-09T23:24:07.146Z,7.57
2024-02-09T23:26:33.601Z,8.20
2024-02-09T23:29:00.135Z,8.10
2024-02-09T23:31:31.562Z,8.77
2024-02-09T23:34:00.021Z,9.00
2024-02-09T23:36:29.066Z,10.43
2024-02-09T23:38:56.254Z,8.63
2024-02-09T23:41:22.634Z,9.23
2024-02-09T23:43:49.127Z,9.87
2024-02-09T23:46:15.835Z,9.30
2024-02-09T23:48:42.538Z,10.47
2024-02-09T23:51:10.222Z,7.57
2024-02-09T23:53:36.970Z,6.90
2024-02-09T23:56:05.021Z,7.40
2024-02-09T23:58:32.439Z,9.00
